Terminal Aerodrome Forecast
Issued by NWS Charleston, WV

Current Version | Previous Version | Text Only | Print | Product List | Glossary Off
Versions: 1 2 3 4 5 6 7 8 9 10 11 12 13 14 15 16 17 18 19 20 21 22

099
FTUS41 KRLX 111551 AAA
TAFPKB
TAF AMD
KPKB 111551Z 1116/1212 28007KT P6SM SCT035 SCT060
     FM111800 29006KT P6SM BKN060
     FM120300 25002KT P6SM SCT080
     FM120900 00000KT P6SM BKN080=

USA.gov is the U.S. government's official web portal to all federal, state and local government web resources and services.